Time;durP1;ratioP1;P1;durP2;ratioP2;P2;SDS_P1;SDS_P2;PMS_P1;PMS_P2;Temp;Humidity;BMP_temperature;BMP_pressure;BME280_temperature;BME280_humidity;BME280_pressure;Samples;Min_cycle;Max_cycle;Signal;HPM_P1;HPM_P2
2024/02/10 00:01:07;;;;;;;12.20;4.55;;;;;;;8.03;100.00;98563.34;5052253;28;20021;-81
2024/02/10 00:03:33;;;;;;;12.02;5.05;;;;;;;8.05;100.00;98563.16;5052147;28;20078;-81
2024/02/10 00:06:02;;;;;;;12.85;4.05;;;;;;;8.08;100.00;98557.50;5052238;28;20036;-81
2024/02/10 00:08:27;;;;;;;16.42;4.63;;;;;;;8.12;100.00;98559.63;5052093;28;20482;-83
2024/02/10 00:10:55;;;;;;;10.35;4.10;;;;;;;8.17;100.00;98558.28;5052595;28;20029;-80
2024/02/10 00:13:21;;;;;;;12.82;4.30;;;;;;;8.19;100.00;98558.91;5052164;28;20496;-81
2024/02/10 00:15:47;;;;;;;9.68;4.00;;;;;;;8.19;100.00;98558.91;5052231;28;20069;-80
2024/02/10 00:18:12;;;;;;;10.85;3.97;;;;;;;8.18;100.00;98555.44;5051893;28;20378;-81
2024/02/10 00:20:38;;;;;;;15.35;4.78;;;;;;;8.18;100.00;98544.84;5033860;28;20036;-83
2024/02/10 00:23:04;;;;;;;12.52;4.38;;;;;;;8.23;100.00;98550.41;5051539;28;20049;-81
2024/02/10 00:25:31;;;;;;;11.93;4.13;;;;;;;8.26;100.00;98550.06;5052114;28;20037;-81
2024/02/10 00:28:00;;;;;;;14.27;5.05;;;;;;;8.28;100.00;98549.88;5052186;28;20447;-81
2024/02/10 00:30:27;;;;;;;11.02;4.10;;;;;;;8.26;100.00;98550.06;5051929;28;20035;-81
2024/02/10 00:32:53;;;;;;;10.82;3.70;;;;;;;8.26;100.00;98549.25;5052427;28;20071;-81
2024/02/10 00:35:22;;;;;;;9.80;3.97;;;;;;;8.25;100.00;98548.41;5051243;28;20362;-81
2024/02/10 00:37:53;;;;;;;10.32;4.03;;;;;;;8.26;100.00;98543.94;5052146;28;20032;-81
2024/02/10 00:40:19;;;;;;;11.90;3.97;;;;;;;8.25;100.00;98542.28;5055893;28;20339;-82
2024/02/10 00:42:44;;;;;;;13.05;3.83;;;;;;;8.25;100.00;98539.63;5054682;28;20027;-81
2024/02/10 00:45:10;;;;;;;9.68;4.15;;;;;;;8.23;100.00;98537.16;5054625;28;20116;-81
2024/02/10 00:47:36;;;;;;;9.15;3.72;;;;;;;8.23;100.00;98539.81;5056151;28;20029;-82
2024/02/10 00:50:02;;;;;;;13.02;3.72;;;;;;;8.22;100.00;98545.28;5054953;28;20029;-81
2024/02/10 00:52:28;;;;;;;8.85;4.00;;;;;;;8.20;100.00;98545.47;5055714;28;20033;-82
2024/02/10 00:54:57;;;;;;;10.98;3.70;;;;;;;8.19;100.00;98545.66;5054752;28;20032;-81
2024/02/10 00:57:22;;;;;;;10.38;4.00;;;;;;;8.16;100.00;98538.88;5054288;28;20029;-81
2024/02/10 00:59:48;;;;;;;10.43;3.75;;;;;;;8.16;100.00;98538.88;5055654;28;20108;-80
2024/02/10 01:02:17;;;;;;;7.68;3.70;;;;;;;8.17;100.00;98539.72;5055737;28;20040;-80
2024/02/10 01:04:44;;;;;;;10.10;3.85;;;;;;;8.14;100.00;98546.19;5055499;28;20029;-80
2024/02/10 01:07:09;;;;;;;14.63;4.05;;;;;;;8.11;100.00;98549.22;5055225;28;20029;-80
2024/02/10 01:09:35;;;;;;;10.30;3.60;;;;;;;8.08;100.00;98555.69;5055562;28;20033;-81
2024/02/10 01:12:00;;;;;;;11.40;4.00;;;;;;;8.06;100.00;98548.91;5053886;28;20032;-80
2024/02/10 01:14:29;;;;;;;15.38;4.43;;;;;;;8.02;100.00;98553.75;5055616;28;20453;-81
2024/02/10 01:16:57;;;;;;;8.65;3.85;;;;;;;8.06;100.00;98559.50;5054001;28;20025;-81
2024/02/10 01:19:24;;;;;;;10.13;4.25;;;;;;;8.05;100.00;98555.22;5054101;28;20115;-81
2024/02/10 01:21:49;;;;;;;13.57;4.47;;;;;;;8.07;100.00;98561.97;5055775;28;20056;-81
2024/02/10 01:24:15;;;;;;;9.30;4.35;;;;;;;8.04;100.00;98561.50;5055000;28;20044;-81
2024/02/10 01:26:40;;;;;;;9.43;3.88;;;;;;;8.03;100.00;98567.81;5053843;28;20036;-81
2024/02/10 01:29:08;;;;;;;9.40;4.07;;;;;;;7.99;100.00;98572.66;5054550;28;20144;-82
2024/02/10 01:31:34;;;;;;;11.63;4.20;;;;;;;7.98;100.00;98565.69;5054957;28;20042;-81
2024/02/10 01:34:00;;;;;;;15.30;4.30;;;;;;;7.96;100.00;98565.06;5055044;28;20100;-81
2024/02/10 01:36:25;;;;;;;15.00;4.45;;;;;;;7.93;100.00;98562.75;5054496;28;20386;-82
2024/02/10 01:38:51;;;;;;;12.38;4.03;;;;;;;7.89;100.00;98569.41;5055084;28;20106;-83
2024/02/10 01:41:16;;;;;;;13.55;3.88;;;;;;;7.92;100.00;98566.41;5054597;28;20039;-81
2024/02/10 01:43:43;;;;;;;12.85;3.90;;;;;;;7.92;100.00;98569.06;5053967;28;20081;-81
2024/02/10 01:46:15;;;;;;;9.88;3.45;;;;;;;7.90;100.00;98569.22;5054842;28;20040;-82
2024/02/10 01:48:42;;;;;;;10.32;3.33;;;;;;;7.88;100.00;98571.25;5054259;28;20032;-81
2024/02/10 01:51:10;;;;;;;8.18;3.50;;;;;;;7.85;100.00;98576.06;5052752;28;20037;-82
2024/02/10 01:53:36;;;;;;;7.85;3.05;;;;;;;7.81;100.00;98572.94;5054130;28;20045;-82
2024/02/10 01:56:01;;;;;;;6.70;3.10;;;;;;;7.77;100.00;98572.47;5054891;28;20032;-81
2024/02/10 01:58:27;;;;;;;6.93;3.25;;;;;;;7.73;100.00;98573.84;5053274;28;20029;-82
2024/02/10 02:00:53;;;;;;;12.43;3.00;;;;;;;7.76;100.00;98572.63;5054435;28;20070;-82
2024/02/10 02:03:19;;;;;;;17.17;3.33;;;;;;;7.76;100.00;98572.63;5054324;28;20028;-82
2024/02/10 02:05:45;;;;;;;7.82;3.25;;;;;;;7.74;100.00;98580.75;5054446;28;20072;-82
2024/02/10 02:08:11;;;;;;;9.25;3.25;;;;;;;7.75;100.00;98577.13;5053882;28;20021;-81
2024/02/10 02:10:36;;;;;;;10.50;3.10;;;;;;;7.77;100.00;98583.03;5054317;28;20059;-81
2024/02/10 02:13:03;;;;;;;6.72;2.95;;;;;;;7.79;100.00;98582.06;5036600;28;20079;-81
2024/02/10 02:15:30;;;;;;;4.88;2.47;;;;;;;7.77;100.00;98584.88;5052973;28;20099;-82
2024/02/10 02:17:57;;;;;;;6.53;2.78;;;;;;;7.77;100.00;98582.22;5054244;28;20032;-81
2024/02/10 02:20:22;;;;;;;8.15;2.88;;;;;;;7.78;100.00;98583.88;5052740;28;20122;-81
2024/02/10 02:22:54;;;;;;;9.02;2.33;;;;;;;7.81;100.00;98580.88;5053922;28;20037;-81
2024/02/10 02:25:20;;;;;;;10.23;2.50;;;;;;;7.82;100.00;98576.41;5036248;28;20044;-81
2024/02/10 02:27:46;;;;;;;6.20;2.75;;;;;;;7.86;100.00;98578.53;5054104;28;20035;-80
2024/02/10 02:30:12;;;;;;;6.60;2.60;;;;;;;7.89;100.00;98577.34;5053646;28;20037;-82
2024/02/10 02:32:37;;;;;;;10.77;2.58;;;;;;;7.91;100.00;98578.84;5053949;28;20152;-82
2024/02/10 02:35:09;;;;;;;12.95;2.80;;;;;;;7.94;100.00;98582.94;5053708;28;20091;-82
2024/02/10 02:37:41;;;;;;;;;;;;;;;7.97;100.00;98579.09;5054371;28;20029;-82
2024/02/10 02:40:09;;;;;;;8.43;2.75;;;;;;;7.92;100.00;98575.16;5053888;28;19966;-82
2024/02/10 02:42:34;;;;;;;3.53;2.35;;;;;;;7.93;100.00;98574.16;5053431;28;20025;-82
2024/02/10 02:45:03;;;;;;;7.07;2.80;;;;;;;7.92;100.00;98577.00;5051733;28;20411;-82
2024/02/10 02:47:32;;;;;;;6.03;2.45;;;;;;;7.92;100.00;98569.88;5052024;28;20036;-81
2024/02/10 02:49:58;;;;;;;9.60;3.00;;;;;;;7.89;100.00;98562.28;5052515;28;20071;-81
2024/02/10 02:52:27;;;;;;;11.15;3.00;;;;;;;7.87;100.00;98566.94;5053145;28;20036;-81
2024/02/10 02:54:54;;;;;;;6.85;3.10;;;;;;;7.81;100.00;98557.06;5051763;28;20118;-81
2024/02/10 02:57:19;;;;;;;6.63;2.90;;;;;;;7.73;100.00;98554.47;5052566;28;20366;-81
2024/02/10 02:59:46;;;;;;;9.02;3.28;;;;;;;7.62;100.00;98557.53;5051871;28;20025;-81
2024/02/10 03:02:12;;;;;;;11.90;3.30;;;;;;;7.49;100.00;98560.75;5053302;28;20056;-82
2024/02/10 03:04:39;;;;;;;12.52;3.70;;;;;;;7.41;100.00;98559.78;5052056;28;20040;-81
2024/02/10 03:07:04;;;;;;;9.98;3.70;;;;;;;7.35;100.00;98555.19;5053009;28;20095;-81
2024/02/10 03:09:29;;;;;;;9.70;3.95;;;;;;;7.29;100.00;98553.25;5053187;28;20056;-81
2024/02/10 03:11:55;;;;;;;10.25;3.90;;;;;;;7.26;100.00;98558.09;5052825;28;20028;-81
2024/02/10 03:14:20;;;;;;;9.40;3.92;;;;;;;7.20;100.00;98547.19;5053011;28;20454;-81
2024/02/10 03:16:46;;;;;;;11.00;4.20;;;;;;;7.15;100.00;98552.19;5052401;28;20034;-80
2024/02/10 03:19:11;;;;;;;8.02;3.65;;;;;;;7.13;100.00;98556.78;5034707;28;20028;-81
2024/02/10 03:21:36;;;;;;;10.70;3.83;;;;;;;7.05;100.00;98552.38;5052343;28;20032;-82
2024/02/10 03:24:03;;;;;;;10.15;4.00;;;;;;;6.99;100.00;98558.34;5051292;28;20048;-81
2024/02/10 03:26:35;;;;;;;12.93;4.13;;;;;;;6.92;100.00;98557.38;5052256;28;20040;-82
2024/02/10 03:29:01;;;;;;;11.55;4.60;;;;;;;6.87;100.00;98554.44;5053416;28;20037;-80
2024/02/10 03:31:26;;;;;;;11.52;4.63;;;;;;;6.87;100.00;98562.38;5052421;28;20482;-80
2024/02/10 03:33:52;;;;;;;12.52;4.40;;;;;;;6.93;100.00;98556.41;5050832;28;20435;-81
2024/02/10 03:36:17;;;;;;;12.88;4.30;;;;;;;6.96;100.00;98557.88;5052099;28;20025;-80
2024/02/10 03:38:43;;;;;;;10.25;4.85;;;;;;;6.99;100.00;98550.41;5052232;28;20082;-81
2024/02/10 03:41:12;;;;;;;13.40;4.68;;;;;;;7.02;100.00;98555.38;5050939;28;20090;-81
2024/02/10 03:43:38;;;;;;;16.40;5.07;;;;;;;7.07;100.00;98553.00;5051075;28;20127;-89
2024/02/10 03:46:04;;;;;;;10.70;5.25;;;;;;;7.16;100.00;98563.56;5052277;28;20148;-81
2024/02/10 03:48:29;;;;;;;10.38;5.05;;;;;;;7.24;100.00;98556.41;5052219;28;20025;-81
2024/02/10 03:50:54;;;;;;;12.43;5.15;;;;;;;7.30;100.00;98565.50;5052082;28;20035;-82
2024/02/10 03:53:20;;;;;;;12.73;5.07;;;;;;;7.34;100.00;98565.97;5050848;28;20075;-82
2024/02/10 03:55:45;;;;;;;15.15;5.15;;;;;;;7.39;100.00;98568.91;5052031;28;20036;-81
2024/02/10 03:58:15;;;;;;;14.23;5.03;;;;;;;7.44;100.00;98568.41;5050854;28;20025;-81
2024/02/10 04:00:43;;;;;;;16.77;4.80;;;;;;;7.48;100.00;98564.38;5051907;28;20033;-86
2024/02/10 04:03:09;;;;;;;14.30;5.28;;;;;;;7.50;100.00;98573.81;5052641;28;20032;-81
2024/02/10 04:05:38;;;;;;;14.93;4.43;;;;;;;7.53;100.00;98575.28;5052560;28;20129;-81
2024/02/10 04:08:04;;;;;;;13.07;4.85;;;;;;;7.53;100.00;98576.09;5050847;28;20021;-81
2024/02/10 04:10:30;;;;;;;11.77;5.40;;;;;;;7.56;100.00;98578.38;5051122;28;20404;-81
2024/02/10 04:12:56;;;;;;;9.95;4.65;;;;;;;7.54;100.00;98572.47;5051760;28;20112;-80
2024/02/10 04:15:22;;;;;;;17.95;4.85;;;;;;;7.57;100.00;98571.28;5051727;28;20486;-80
2024/02/10 04:17:55;;;;;;;14.90;4.90;;;;;;;7.59;100.00;98569.28;5051772;28;20044;-81
2024/02/10 04:20:23;;;;;;;12.43;4.72;;;;;;;7.62;100.00;98576.06;5051301;28;20458;-81
2024/02/10 04:22:49;;;;;;;11.73;5.10;;;;;;;7.62;100.00;98573.41;5051800;28;20362;-81
2024/02/10 04:25:15;;;;;;;14.77;4.82;;;;;;;7.61;100.00;98580.50;5050250;28;20474;-80
2024/02/10 04:27:41;;;;;;;12.88;4.88;;;;;;;7.64;100.00;98574.06;5051926;28;20029;-81
2024/02/10 04:30:07;;;;;;;11.30;4.40;;;;;;;7.67;100.00;98579.81;5052090;28;20029;-80
2024/02/10 04:32:33;;;;;;;15.05;4.80;;;;;;;7.69;100.00;98588.41;5051650;28;20120;-79
2024/02/10 04:34:59;;;;;;;12.65;4.90;;;;;;;7.71;100.00;98581.09;5051560;28;20052;-80
2024/02/10 04:37:24;;;;;;;12.73;4.68;;;;;;;7.72;100.00;98588.06;5051576;28;20059;-80
2024/02/10 04:39:49;;;;;;;11.15;4.40;;;;;;;7.73;100.00;98588.88;5051469;28;20312;-81
2024/02/10 04:42:15;;;;;;;11.68;4.38;;;;;;;7.72;100.00;98579.31;5051871;28;20043;-81
2024/02/10 04:44:46;;;;;;;15.07;4.50;;;;;;;7.71;100.00;98586.41;5051582;28;20033;-81
2024/02/10 04:47:11;;;;;;;13.57;5.07;;;;;;;7.70;100.00;98576.00;5051443;28;20025;-80
2024/02/10 04:49:37;;;;;;;12.15;4.65;;;;;;;7.71;100.00;98586.41;5051939;28;20293;-81
2024/02/10 04:52:02;;;;;;;13.02;4.60;;;;;;;7.69;100.00;98585.75;5051710;28;20056;-81
2024/02/10 04:54:28;;;;;;;10.98;4.00;;;;;;;7.70;100.00;98586.56;5051568;28;20029;-81
2024/02/10 04:56:54;;;;;;;13.77;4.38;;;;;;;7.68;100.00;98586.75;5051704;28;20029;-81
2024/02/10 04:59:24;;;;;;;10.90;4.38;;;;;;;7.68;100.00;98585.94;5051335;28;20029;-80
2024/02/10 05:01:51;;;;;;;15.90;5.07;;;;;;;7.65;100.00;98587.09;5051983;28;20158;-82
2024/02/10 05:04:16;;;;;;;7.40;3.97;;;;;;;7.65;100.00;98586.28;5052039;28;20044;-82
2024/02/10 05:06:42;;;;;;;8.23;4.45;;;;;;;7.63;100.00;98588.28;5051331;28;20063;-81
2024/02/10 05:09:09;;;;;;;9.27;4.93;;;;;;;7.56;100.00;98593.47;5051352;28;20025;-81
2024/02/10 05:11:35;;;;;;;14.07;5.30;;;;;;;7.51;100.00;98591.34;5051681;28;20054;-80
2024/02/10 05:14:01;;;;;;;11.48;4.55;;;;;;;7.47;100.00;98590.03;5051648;28;20033;-81
2024/02/10 05:16:26;;;;;;;10.02;4.63;;;;;;;7.45;100.00;98592.03;5051039;28;20429;-80
2024/02/10 05:18:54;;;;;;;14.18;4.57;;;;;;;7.44;100.00;98590.38;5051847;28;20025;-85
2024/02/10 05:21:22;;;;;;;13.60;5.00;;;;;;;7.44;100.00;98590.38;5049910;28;20040;-81
2024/02/10 05:23:49;;;;;;;14.43;4.53;;;;;;;7.45;100.00;98594.69;5050982;28;20053;-80
2024/02/10 05:26:18;;;;;;;13.07;4.22;;;;;;;7.44;100.00;98603.59;5053146;28;20028;-81
2024/02/10 05:28:44;;;;;;;12.13;4.60;;;;;;;7.44;100.00;98602.78;5054746;28;20025;-81
2024/02/10 05:31:11;;;;;;;9.27;4.38;;;;;;;7.44;100.00;98605.44;5054549;28;20082;-83
2024/02/10 05:33:39;;;;;;;10.60;4.50;;;;;;;7.45;100.00;98615.00;5052973;28;20104;-81
2024/02/10 05:36:08;;;;;;;16.60;4.75;;;;;;;7.47;100.00;98610.38;5054606;28;20455;-80
2024/02/10 05:38:33;;;;;;;15.30;4.75;;;;;;;7.47;100.00;98608.56;5054681;28;20057;-80
2024/02/10 05:41:01;;;;;;;12.75;4.57;;;;;;;7.48;100.00;98618.16;5054529;28;20471;-81
2024/02/10 05:43:26;;;;;;;14.80;5.05;;;;;;;7.45;100.00;98617.66;5053441;28;20032;-81
2024/02/10 05:45:52;;;;;;;10.65;4.20;;;;;;;7.45;100.00;98615.84;5054652;28;20025;-80
2024/02/10 05:48:20;;;;;;;10.90;4.40;;;;;;;7.47;100.00;98613.03;5054987;28;20029;-81
2024/02/10 05:50:46;;;;;;;12.05;4.70;;;;;;;7.48;100.00;98615.50;5054537;28;20075;-80
2024/02/10 05:53:13;;;;;;;14.05;4.13;;;;;;;7.49;100.00;98616.31;5053849;28;20490;-80
2024/02/10 05:55:39;;;;;;;16.00;4.75;;;;;;;7.49;100.00;98616.31;5054471;28;20039;-80
2024/02/10 05:58:06;;;;;;;13.35;5.13;;;;;;;7.53;100.00;98620.28;5054062;28;20069;-80
2024/02/10 06:00:32;;;;;;;14.77;4.47;;;;;;;7.56;100.00;98622.56;5053852;28;20454;-80
2024/02/10 06:02:59;;;;;;;9.90;4.50;;;;;;;7.59;100.00;98627.50;5053726;28;20060;-89
2024/02/10 06:05:24;;;;;;;13.88;4.53;;;;;;;7.58;100.00;98624.06;5053994;28;20554;-81
2024/02/10 06:07:52;;;;;;;12.00;4.05;;;;;;;7.59;100.00;98628.31;5054080;28;20057;-81
2024/02/10 06:10:18;;;;;;;7.35;3.85;;;;;;;7.61;100.00;98633.44;5054403;28;20029;-81
2024/02/10 06:12:47;;;;;;;10.38;4.22;;;;;;;7.60;100.00;98639.75;5053916;28;20040;-80
2024/02/10 06:15:13;;;;;;;7.97;3.97;;;;;;;7.64;100.00;98640.22;5053773;28;20036;-80
2024/02/10 06:17:48;;;;;;;8.63;4.60;;;;;;;7.63;100.00;98642.06;5053795;28;20056;-80
2024/02/10 06:20:17;;;;;;;10.27;3.78;;;;;;;7.64;100.00;98640.22;5054225;28;20040;-80
2024/02/10 06:22:50;;;;;;;13.20;5.30;;;;;;;7.63;100.00;98646.50;5053952;28;20163;-80
2024/02/10 06:25:22;;;;;;;11.55;4.57;;;;;;;7.62;100.00;98645.69;5054378;28;20497;-80
2024/02/10 06:27:48;;;;;;;9.65;4.30;;;;;;;7.60;100.00;98645.03;5053835;28;20036;-80
2024/02/10 06:30:16;;;;;;;11.95;4.30;;;;;;;7.58;100.00;98645.22;5053674;28;20024;-80
2024/02/10 06:32:43;;;;;;;8.93;4.32;;;;;;;7.59;100.00;98653.97;5053743;28;20060;-82
2024/02/10 06:35:10;;;;;;;11.98;4.80;;;;;;;7.57;100.00;98648.03;5053047;28;20029;-80
2024/02/10 06:37:39;;;;;;;12.25;4.30;;;;;;;7.58;100.00;98655.81;5053031;28;20033;-80
2024/02/10 06:40:07;;;;;;;12.95;4.80;;;;;;;7.58;100.00;98660.25;5053068;28;20025;-80
2024/02/10 06:42:35;;;;;;;15.77;5.55;;;;;;;7.54;100.00;98658.97;5053273;28;20056;-80
2024/02/10 06:45:16;;;;;;;11.27;4.43;;;;;;;7.53;100.00;98658.13;5053225;28;20108;-80
2024/02/10 06:47:42;;;;;;;12.57;4.78;;;;;;;7.49;100.00;98656.00;5053865;28;20120;-80
2024/02/10 06:50:11;;;;;;;9.57;4.88;;;;;;;7.41;100.00;98665.63;5053079;28;20471;-80
2024/02/10 06:52:37;;;;;;;11.48;4.13;;;;;;;7.33;100.00;98670.13;5053014;28;20451;-80
2024/02/10 06:55:07;;;;;;;15.45;5.07;;;;;;;7.30;100.00;98675.75;5052743;28;20024;-80
2024/02/10 06:57:33;;;;;;;8.60;4.60;;;;;;;7.29;100.00;98672.28;5053125;28;20025;-80
2024/02/10 07:00:03;;;;;;;12.35;4.35;;;;;;;7.30;100.00;98681.03;5052829;28;20420;-80
2024/02/10 07:02:29;;;;;;;9.93;5.45;;;;;;;7.29;100.00;98690.81;5052415;28;20025;-81
2024/02/10 07:04:55;;;;;;;10.35;4.78;;;;;;;7.31;100.00;98688.81;5053332;28;20063;-80
2024/02/10 07:07:21;;;;;;;9.88;4.43;;;;;;;7.33;100.00;98693.94;5051723;28;20371;-81
2024/02/10 07:09:47;;;;;;;11.88;5.03;;;;;;;7.35;100.00;98698.06;5053109;28;20076;-81
2024/02/10 07:12:12;;;;;;;12.32;5.30;;;;;;;7.37;100.00;98701.34;5052559;28;20056;-81
2024/02/10 07:14:38;;;;;;;10.52;4.85;;;;;;;7.39;100.00;98703.84;5052439;28;20032;-80
2024/02/10 07:17:04;;;;;;;11.80;4.57;;;;;;;7.39;100.00;98704.66;5051409;28;20032;-80
2024/02/10 07:19:35;;;;;;;11.57;4.57;;;;;;;7.40;100.00;98701.03;5051112;28;20029;-81
2024/02/10 07:22:05;;;;;;;10.63;4.43;;;;;;;7.42;100.00;98703.50;5052541;28;20029;-81
2024/02/10 07:24:33;;;;;;;8.55;5.20;;;;;;;7.43;100.00;98707.78;5052620;28;20336;-80
2024/02/10 07:26:59;;;;;;;9.68;4.38;;;;;;;7.44;100.00;98698.88;5052316;28;20060;-80
2024/02/10 07:29:25;;;;;;;10.05;4.57;;;;;;;7.45;100.00;98702.31;5052701;28;20064;-80
2024/02/10 07:31:50;;;;;;;12.50;4.47;;;;;;;7.44;100.00;98700.69;5052710;28;20068;-81
2024/02/10 07:34:17;;;;;;;14.52;4.30;;;;;;;7.43;100.00;98697.19;5052139;28;20452;-82
2024/02/10 07:36:43;;;;;;;11.13;4.63;;;;;;;7.45;100.00;98711.09;5052910;28;20032;-81
2024/02/10 07:39:08;;;;;;;9.13;4.55;;;;;;;7.46;100.00;98702.16;5051250;28;20378;-80
2024/02/10 07:41:35;;;;;;;8.40;4.57;;;;;;;7.46;100.00;98702.16;5052350;28;20032;-81
2024/02/10 07:44:03;;;;;;;13.73;4.47;;;;;;;7.47;100.00;98709.09;5052687;28;20025;-80
2024/02/10 07:46:32;;;;;;;12.10;4.80;;;;;;;7.48;100.00;98715.22;5052400;28;20035;-81
2024/02/10 07:49:01;;;;;;;10.48;4.25;;;;;;;7.50;100.00;98711.41;5052109;28;20079;-81
2024/02/10 07:51:27;;;;;;;10.45;4.25;;;;;;;7.53;100.00;98711.06;5051014;28;20092;-81
2024/02/10 07:53:55;;;;;;;9.70;4.40;;;;;;;7.56;100.00;98721.31;5050775;28;20032;-79
2024/02/10 07:56:20;;;;;;;11.70;4.15;;;;;;;7.63;100.00;98723.25;5050977;28;20048;-80
2024/02/10 07:58:45;;;;;;;15.00;4.38;;;;;;;7.65;100.00;98724.75;5051708;28;20025;-82
2024/02/10 08:01:11;;;;;;;10.50;4.65;;;;;;;7.70;100.00;98726.88;5051866;28;20415;-81
2024/02/10 08:03:37;;;;;;;10.35;4.63;;;;;;;7.69;100.00;98733.19;5051953;28;20032;-81
2024/02/10 08:06:04;;;;;;;11.13;4.95;;;;;;;7.67;100.00;98727.22;5052112;28;20083;-81
2024/02/10 08:08:29;;;;;;;9.73;4.63;;;;;;;7.64;100.00;98727.56;5051041;28;20029;-79
2024/02/10 08:10:55;;;;;;;9.75;4.82;;;;;;;7.62;100.00;98732.22;5051623;28;20040;-80
2024/02/10 08:13:24;;;;;;;9.00;4.22;;;;;;;7.63;100.00;98724.09;5051830;28;20386;-78
2024/02/10 08:15:49;;;;;;;7.03;4.32;;;;;;;7.66;100.00;98726.41;5051640;28;20025;-78
2024/02/10 08:18:15;;;;;;;8.18;4.18;;;;;;;7.66;100.00;98729.06;5051922;28;20434;-79
2024/02/10 08:20:41;;;;;;;11.18;4.47;;;;;;;7.69;100.00;98726.06;5051787;28;20029;-81
2024/02/10 08:23:09;;;;;;;9.77;4.30;;;;;;;7.71;100.00;98723.25;5051501;28;20036;-80
2024/02/10 08:25:37;;;;;;;10.95;4.45;;;;;;;7.77;100.00;98723.34;5051720;28;20128;-81
2024/02/10 08:28:03;;;;;;;12.65;4.78;;;;;;;7.79;100.00;98723.19;5050705;28;20037;-79
2024/02/10 08:30:29;;;;;;;10.45;4.55;;;;;;;7.81;100.00;98734.44;5050611;28;20115;-81
2024/02/10 08:32:54;;;;;;;9.52;4.10;;;;;;;7.85;100.00;98745.50;5052753;28;20048;-80
2024/02/10 08:35:19;;;;;;;14.40;4.72;;;;;;;7.86;100.00;98742.69;5052557;28;20099;-79
2024/02/10 08:37:45;;;;;;;8.75;4.55;;;;;;;7.92;100.00;98749.13;5051393;28;20109;-80
2024/02/10 08:40:11;;;;;;;14.40;4.47;;;;;;;7.95;100.00;98748.78;5051434;28;20056;-79
2024/02/10 08:42:37;;;;;;;10.07;4.95;;;;;;;7.98;100.00;98756.38;5052492;28;20021;-78
2024/02/10 08:45:05;;;;;;;12.85;5.38;;;;;;;8.05;100.00;98757.31;5053036;28;20071;-79
2024/02/10 08:47:31;;;;;;;9.35;3.92;;;;;;;8.07;100.00;98763.25;5052527;28;20121;-78
2024/02/10 08:49:56;;;;;;;6.78;4.05;;;;;;;8.09;100.00;98763.94;5052562;28;20060;-79
2024/02/10 08:52:22;;;;;;;9.85;3.97;;;;;;;8.20;100.00;98757.41;5052435;28;20028;-80
2024/02/10 08:54:47;;;;;;;6.80;4.32;;;;;;;8.32;100.00;98759.69;5052551;28;20474;-80
2024/02/10 08:57:15;;;;;;;9.43;4.80;;;;;;;8.40;100.00;98764.91;5052337;28;20191;-80
2024/02/10 08:59:41;;;;;;;7.88;4.40;;;;;;;8.45;100.00;98766.06;5053578;28;20450;-79
2024/02/10 09:02:07;;;;;;;11.65;4.07;;;;;;;8.55;100.00;98762.34;5056230;28;20037;-81
2024/02/10 09:04:38;;;;;;;12.35;4.25;;;;;;;8.64;100.00;98762.13;5056546;28;20029;-79
2024/02/10 09:07:04;;;;;;;7.35;4.20;;;;;;;8.71;100.00;98762.22;5056936;28;20025;-79
2024/02/10 09:09:30;;;;;;;8.32;4.18;;;;;;;8.84;100.00;98772.25;5055332;28;20028;-80
2024/02/10 09:11:56;;;;;;;8.32;4.05;;;;;;;8.85;100.00;98757.97;5054833;28;20478;-79
2024/02/10 09:14:21;;;;;;;6.90;4.00;;;;;;;8.90;100.00;98760.09;5055752;28;20021;-80
2024/02/10 09:16:47;;;;;;;8.05;4.35;;;;;;;8.94;100.00;98761.38;5055958;28;20454;-80
2024/02/10 09:19:15;;;;;;;10.90;4.35;;;;;;;9.05;100.00;98773.41;5056021;28;20033;-82
2024/02/10 09:21:57;;;;;;;9.13;4.07;;;;;;;9.11;100.00;98770.03;5055868;28;20035;-81
2024/02/10 09:24:23;;;;;;;8.88;4.38;;;;;;;9.16;100.00;98776.41;5055840;28;20056;-81
2024/02/10 09:26:49;;;;;;;6.53;4.15;;;;;;;9.21;100.00;98775.91;5055457;28;20447;-81
2024/02/10 09:29:15;;;;;;;9.20;4.20;;;;;;;9.16;100.00;98770.31;5056048;28;20021;-80
2024/02/10 09:31:44;;;;;;;7.45;4.07;;;;;;;9.19;100.00;98777.91;5055266;28;20111;-79
2024/02/10 09:34:13;;;;;;;5.68;4.10;;;;;;;9.18;100.00;98777.09;5054520;28;20032;-79
2024/02/10 09:36:42;;;;;;;12.07;4.65;;;;;;;9.18;100.00;98778.91;5054261;28;20071;-80
2024/02/10 09:39:08;;;;;;;8.45;4.20;;;;;;;9.11;100.00;98789.41;5055125;28;20533;-80
2024/02/10 09:41:33;;;;;;;9.63;5.25;;;;;;;9.08;100.00;98789.78;5055296;28;20107;-79
2024/02/10 09:43:59;;;;;;;12.60;5.82;;;;;;;9.10;100.00;98794.91;5055976;28;20033;-80
2024/02/10 09:46:24;;;;;;;10.13;5.72;;;;;;;9.01;100.00;98786.19;5055705;28;20104;-81
2024/02/10 09:48:51;;;;;;;19.08;9.30;;;;;;;9.00;100.00;98797.78;5055217;28;20037;-81
2024/02/10 09:51:18;;;;;;;15.55;7.28;;;;;;;9.00;100.00;98789.84;5054085;28;20104;-81
2024/02/10 09:53:44;;;;;;;8.02;5.35;;;;;;;8.98;100.00;98792.66;5053892;28;20194;-81
2024/02/10 09:56:13;;;;;;;13.23;4.43;;;;;;;8.93;100.00;98792.38;5055716;28;20155;-82
2024/02/10 09:58:41;;;;;;;6.70;4.78;;;;;;;8.92;100.00;98782.78;5055081;28;20029;-81
2024/02/10 10:01:09;;;;;;;9.35;5.05;;;;;;;8.95;100.00;98787.72;5055481;28;20029;-82
2024/02/10 10:03:35;;;;;;;8.98;4.68;;;;;;;9.02;100.00;98794.97;5055302;28;20056;-80
2024/02/10 10:06:04;;;;;;;8.23;4.85;;;;;;;9.07;100.00;98789.97;5055336;28;20025;-80
2024/02/10 10:08:34;;;;;;;10.00;4.93;;;;;;;9.17;100.00;98799.31;5055462;28;20048;-81
2024/02/10 10:11:00;;;;;;;8.07;4.38;;;;;;;9.26;100.00;98788.63;5054114;28;20031;-81
2024/02/10 10:13:25;;;;;;;7.40;4.32;;;;;;;9.32;100.00;98786.06;5055026;28;20112;-83
2024/02/10 10:15:51;;;;;;;7.00;3.85;;;;;;;9.39;100.00;98782.69;5055704;28;20168;-82
2024/02/10 10:18:19;;;;;;;9.20;4.18;;;;;;;9.47;100.00;98790.56;5055657;28;20421;-81
2024/02/10 10:20:49;;;;;;;10.68;4.82;;;;;;;9.58;100.00;98790.09;5055000;28;20108;-80
2024/02/10 10:23:16;;;;;;;9.52;4.53;;;;;;;9.69;100.00;98794.97;5055280;28;20029;-81
2024/02/10 10:25:43;;;;;;;5.07;3.58;;;;;;;9.80;100.00;98787.56;5055286;28;20052;-82
2024/02/10 10:28:13;;;;;;;8.77;3.70;;;;;;;9.94;100.00;98792.03;5054883;28;20447;-81
2024/02/10 10:30:43;;;;;;;8.70;4.22;;;;;;;10.13;100.00;98780.00;5055650;28;20060;-80
2024/02/10 10:33:10;;;;;;;7.80;3.75;;;;;;;10.31;100.00;98781.44;5055906;28;20028;-81
2024/02/10 10:35:37;;;;;;;9.02;4.05;;;;;;;10.81;100.00;98787.69;5055315;28;20021;-83
2024/02/10 10:38:06;;;;;;;9.05;3.90;;;;;;;11.52;100.00;98784.13;5055340;28;20112;-83
2024/02/10 10:40:32;;;;;;;7.03;3.80;;;;;;;12.08;100.00;98777.09;5054398;28;20455;-82
2024/02/10 10:43:01;;;;;;;8.65;3.72;;;;;;;12.49;100.00;98776.97;5054852;28;20029;-78
2024/02/10 10:45:29;;;;;;;6.45;3.40;;;;;;;12.62;100.00;98770.06;5054486;28;20102;-80
2024/02/10 10:47:54;;;;;;;7.57;3.80;;;;;;;12.86;100.00;98772.13;5053923;28;20060;-79
2024/02/10 10:50:20;;;;;;;7.75;4.40;;;;;;;13.06;100.00;98768.63;5053400;28;20057;-79
2024/02/10 10:52:47;;;;;;;7.05;3.60;;;;;;;13.06;100.00;98771.31;5054245;28;20527;-81
2024/02/10 10:55:15;;;;;;;5.80;3.55;;;;;;;13.19;100.00;98771.28;5053479;28;20025;-80
2024/02/10 10:57:43;;;;;;;7.70;3.30;;;;;;;13.27;100.00;98767.63;5053351;28;20024;-81
2024/02/10 11:00:15;;;;;;;8.55;3.70;;;;;;;13.09;100.00;98765.53;5052970;28;20025;-78
2024/02/10 11:02:40;;;;;;;;;;;;;;;12.97;100.00;98773.38;5052329;28;20021;-79
2024/02/10 11:05:12;;;;;;;8.15;3.60;;;;;;;12.83;100.00;98767.19;5053246;28;19912;-80
2024/02/10 11:07:42;;;;;;;7.40;3.47;;;;;;;12.79;100.00;98767.81;5052855;28;20029;-81
2024/02/10 11:10:09;;;;;;;4.93;3.20;;;;;;;12.61;100.00;98766.53;5052010;28;20056;-83
2024/02/10 11:12:37;;;;;;;7.10;3.17;;;;;;;12.48;100.00;98763.84;5052941;28;20033;-83
2024/02/10 11:15:09;;;;;;;7.80;3.33;;;;;;;12.48;100.00;98756.69;5051364;28;20033;-84
2024/02/10 11:17:35;;;;;;;8.60;3.28;;;;;;;12.64;100.00;98765.31;5053181;28;20032;-82
2024/02/10 11:20:04;;;;;;;7.63;3.15;;;;;;;12.69;100.00;98752.22;5052869;28;20029;-80
2024/02/10 11:22:42;;;;;;;5.90;3.28;;;;;;;12.76;100.00;98749.53;5052108;28;20025;-80
2024/02/10 11:25:11;;;;;;;5.72;2.97;;;;;;;12.77;100.00;98746.66;5052970;28;20076;-85
2024/02/10 11:27:42;;;;;;;10.40;3.40;;;;;;;12.73;100.00;98740.09;5051452;28;20135;-82